Time;durP1;ratioP1;P1;durP2;ratioP2;P2;SDS_P1;SDS_P2;PMS_P1;PMS_P2;Temp;Humidity;BMP_temperature;BMP_pressure;BME280_temperature;BME280_humidity;BME280_pressure;Samples;Min_cycle;Max_cycle;Signal;HPM_P1;HPM_P2
2023/01/09 00:00:38;;;;;;;;;;;17.00;54.00;;;;;;5012712;28;19988;-52
2023/01/09 00:03:03;;;;;;;;;;;17.10;54.10;;;;;;5004451;28;20414;-52
2023/01/09 00:05:29;;;;;;;;;;;17.00;54.00;;;;;;5027345;28;19920;-53
2023/01/09 00:07:54;;;;;;;;;;;17.00;54.10;;;;;;5033196;28;19909;-54
2023/01/09 00:10:19;;;;;;;;;;;17.00;54.10;;;;;;5027573;28;19909;-52
2023/01/09 00:12:45;;;;;;;;;;;17.00;54.10;;;;;;5001245;28;19924;-52
2023/01/09 00:15:10;;;;;;;;;;;17.00;54.00;;;;;;5009922;28;19968;-52
2023/01/09 00:17:36;;;;;;;;;;;17.00;54.10;;;;;;4996646;28;19909;-52
2023/01/09 00:20:02;;;;;;;;;;;17.00;54.20;;;;;;5004231;28;19913;-52
2023/01/09 00:22:27;;;;;;;;;;;17.00;54.10;;;;;;5030807;28;20011;-52
2023/01/09 00:24:52;;;;;;;;;;;17.00;54.10;;;;;;5005446;28;19953;-52
2023/01/09 00:27:18;;;;;;;;;;;16.90;54.10;;;;;;5004759;28;19917;-52
2023/01/09 00:29:44;;;;;;;;;;;16.90;54.10;;;;;;4997148;28;19928;-52
2023/01/09 00:32:11;;;;;;;;;;;16.90;54.10;;;;;;5000316;28;20461;-52
2023/01/09 00:34:36;;;;;;;;;;;16.90;54.10;;;;;;4994016;28;19977;-51
2023/01/09 00:37:02;;;;;;;;;;;16.90;54.10;;;;;;4999099;28;19914;-53
2023/01/09 00:39:27;;;;;;;;;;;16.80;54.10;;;;;;5006659;28;20106;-52
2023/01/09 00:41:53;;;;;;;;;;;16.80;54.10;;;;;;4996035;28;19928;-52
2023/01/09 00:44:27;;;;;;;;;;;16.80;54.10;;;;;;4998391;28;19917;-51
2023/01/09 00:46:54;;;;;;;;;;;16.80;54.10;;;;;;4993639;28;19914;-53
2023/01/09 00:49:19;;;;;;;;;;;16.80;54.10;;;;;;5008694;28;19976;-54
2023/01/09 00:51:45;;;;;;;;;;;16.80;54.20;;;;;;5008573;28;20370;-53
2023/01/09 00:54:10;;;;;;;;;;;16.80;54.20;;;;;;5018623;28;19957;-53
2023/01/09 00:56:36;;;;;;;;;;;16.80;54.20;;;;;;5001832;28;19921;-54
2023/01/09 00:59:02;;;;;;;;;;;16.80;54.20;;;;;;5027950;28;19913;-53
2023/01/09 01:01:27;;;;;;;;;;;16.70;54.20;;;;;;5000854;28;19918;-53
2023/01/09 01:03:52;;;;;;;;;;;16.70;54.20;;;;;;5005205;28;19918;-53
2023/01/09 01:09:02;;;;;;;;;;;16.70;54.30;;;;;;5012662;28;19916;-53
2023/01/09 01:11:27;;;;;;;;;;;16.70;54.30;;;;;;5010263;28;19910;-53
2023/01/09 01:13:53;;;;;;;;;;;16.70;54.30;;;;;;5007610;28;19926;-53
2023/01/09 01:16:18;;;;;;;;;;;16.70;54.30;;;;;;4994322;28;19921;-53
2023/01/09 01:18:44;;;;;;;;;;;16.60;54.30;;;;;;4998796;28;19917;-53
2023/01/09 01:21:09;;;;;;;;;;;16.60;54.20;;;;;;4993767;28;19914;-53
2023/01/09 01:23:35;;;;;;;;;;;16.60;54.30;;;;;;4993791;28;19924;-54
2023/01/09 01:26:04;;;;;;;;;;;16.60;54.30;;;;;;4999689;28;19914;-52
2023/01/09 01:28:30;;;;;;;;;;;16.50;54.30;;;;;;5006612;28;19982;-53
2023/01/09 01:30:55;;;;;;;;;;;16.50;54.30;;;;;;5007654;28;19962;-53
2023/01/09 01:33:21;;;;;;;;;;;16.50;54.30;;;;;;4995057;28;19922;-51
2023/01/09 01:35:46;;;;;;;;;;;16.50;54.30;;;;;;5006078;28;19921;-53
2023/01/09 01:38:11;;;;;;;;;;;16.50;54.50;;;;;;4998281;28;20016;-54
2023/01/09 01:40:39;;;;;;;;;;;16.50;54.50;;;;;;5012520;28;19955;-53
2023/01/09 01:43:04;;;;;;;;;;;16.40;54.50;;;;;;5010997;28;19914;-53
2023/01/09 01:45:31;;;;;;;;;;;16.40;54.40;;;;;;5005506;28;19920;-53
2023/01/09 01:48:14;;;;;;;;;;;16.40;54.50;;;;;;4996985;28;19921;-53
2023/01/09 01:50:47;;;;;;;;;;;16.40;54.50;;;;;;5001642;28;19913;-52
2023/01/09 01:53:13;;;;;;;;;;;16.40;54.60;;;;;;5044943;28;19964;-52
2023/01/09 01:55:40;;;;;;;;;;;16.30;54.60;;;;;;5010333;28;20298;-52
2023/01/09 01:58:06;;;;;;;;;;;16.30;54.60;;;;;;5044461;28;19914;-54
2023/01/09 02:00:33;;;;;;;;;;;16.30;54.60;;;;;;5008991;28;19914;-53
2023/01/09 02:02:59;;;;;;;;;;;16.30;54.60;;;;;;5008112;28;19996;-52
2023/01/09 02:05:25;;;;;;;;;;;16.30;54.60;;;;;;5005861;28;19914;-53
2023/01/09 02:07:50;;;;;;;;;;;16.30;54.60;;;;;;5016245;28;19914;-53
2023/01/09 02:10:16;;;;;;;;;;;16.30;54.50;;;;;;4995864;28;20370;-51
2023/01/09 02:12:41;;;;;;;;;;;16.40;54.40;;;;;;5005095;28;19917;-52
2023/01/09 02:15:08;;;;;;;;;;;16.50;54.30;;;;;;5000373;28;19917;-52
2023/01/09 02:17:52;;;;;;;;;;;16.60;54.10;;;;;;5026796;28;19922;-52
2023/01/09 02:20:31;;;;;;;;;;;16.90;53.40;;;;;;5005256;28;20020;-52
2023/01/09 02:23:16;;;;;;;;;;;17.30;52.70;;;;;;5033007;28;19921;-52
2023/01/09 02:25:43;;;;;;;;;;;17.50;52.00;;;;;;4992843;28;21563;-52
2023/01/09 02:28:44;;;;;;;;;;;17.80;51.30;;;;;;5010955;28;19920;-54
2023/01/09 02:31:28;;;;;;;;;;;18.20;50.70;;;;;;5027590;28;19921;-52
2023/01/09 02:34:06;;;;;;;;;;;18.70;49.60;;;;;;5005031;28;19961;-52
2023/01/09 02:36:51;;;;;;;;;;;19.00;48.70;;;;;;5036367;28;19967;-52
2023/01/09 02:39:19;;;;;;;;;;;19.30;48.00;;;;;;5028800;28;20376;-52
2023/01/09 02:41:57;;;;;;;;;;;19.40;48.00;;;;;;5008543;28;19920;-52
2023/01/09 02:44:23;;;;;;;;;;;19.30;48.10;;;;;;5038554;28;20313;-52
2023/01/09 02:46:58;;;;;;;;;;;19.10;48.40;;;;;;5001176;28;19913;-52
2023/01/09 02:49:24;;;;;;;;;;;18.90;48.80;;;;;;4997366;28;19940;-52
2023/01/09 02:51:50;;;;;;;;;;;18.70;49.20;;;;;;5008364;28;19914;-52
2023/01/09 02:54:19;;;;;;;;;;;18.60;49.40;;;;;;5008459;28;19917;-52
2023/01/09 02:56:56;;;;;;;;;;;18.40;49.70;;;;;;5013186;28;19952;-52
2023/01/09 02:59:26;;;;;;;;;;;18.30;50.10;;;;;;5022190;28;19950;-52
2023/01/09 03:01:54;;;;;;;;;;;18.20;50.50;;;;;;5036789;28;20333;-52
2023/01/09 03:04:33;;;;;;;;;;;18.00;51.00;;;;;;5008209;28;19913;-52
2023/01/09 03:07:02;;;;;;;;;;;17.90;51.00;;;;;;5043190;28;19971;-51
2023/01/09 03:09:28;;;;;;;;;;;17.80;51.20;;;;;;5014044;28;20370;-53
2023/01/09 03:11:56;;;;;;;;;;;17.70;51.30;;;;;;5008851;28;19972;-52
2023/01/09 03:14:22;;;;;;;;;;;17.70;51.50;;;;;;5011326;28;19921;-52
2023/01/09 03:16:49;;;;;;;;;;;17.70;51.70;;;;;;5026575;28;19924;-52
2023/01/09 03:19:15;;;;;;;;;;;17.60;51.80;;;;;;5033113;28;19917;-52
2023/01/09 03:21:40;;;;;;;;;;;17.50;51.90;;;;;;5007173;28;20405;-52
2023/01/09 03:24:06;;;;;;;;;;;17.50;52.10;;;;;;5045100;28;20008;-52
2023/01/09 03:26:31;;;;;;;;;;;17.40;52.20;;;;;;5000490;28;20004;-52
2023/01/09 03:28:57;;;;;;;;;;;17.40;52.40;;;;;;5009857;28;19916;-52
2023/01/09 03:31:23;;;;;;;;;;;17.30;52.40;;;;;;5002984;28;19914;-54
2023/01/09 03:33:48;;;;;;;;;;;17.30;52.60;;;;;;4995147;28;19922;-53
2023/01/09 03:36:14;;;;;;;;;;;17.20;52.60;;;;;;5006070;28;19924;-52
2023/01/09 03:38:40;;;;;;;;;;;17.20;52.70;;;;;;4997816;28;19914;-52
2023/01/09 03:41:05;;;;;;;;;;;17.20;52.70;;;;;;4998443;28;20387;-52
2023/01/09 03:43:31;;;;;;;;;;;17.10;52.60;;;;;;4996823;28;19968;-52
2023/01/09 03:45:56;;;;;;;;;;;17.20;52.70;;;;;;4996998;28;19978;-52
2023/01/09 03:48:22;;;;;;;;;;;17.30;52.40;;;;;;5000491;28;20286;-52
2023/01/09 03:50:48;;;;;;;;;;;17.60;52.00;;;;;;4996892;28;19941;-54
2023/01/09 03:53:13;;;;;;;;;;;17.70;51.50;;;;;;4994553;28;20300;-52
2023/01/09 03:55:39;;;;;;;;;;;18.00;51.70;;;;;;4998283;28;19914;-52
2023/01/09 03:58:04;;;;;;;;;;;18.10;50.60;;;;;;5002846;28;20278;-52
2023/01/09 04:00:30;;;;;;;;;;;18.20;50.20;;;;;;5011244;28;19922;-52
2023/01/09 04:02:55;;;;;;;;;;;18.30;50.00;;;;;;5005216;28;20441;-52
2023/01/09 04:05:21;;;;;;;;;;;18.40;49.90;;;;;;4996562;28;19921;-52
2023/01/09 04:07:46;;;;;;;;;;;18.30;50.00;;;;;;4996623;28;19914;-52
2023/01/09 04:10:12;;;;;;;;;;;18.30;49.90;;;;;;5012322;28;19949;-52
2023/01/09 04:12:37;;;;;;;;;;;18.30;49.80;;;;;;5001897;28;19917;-52
2023/01/09 04:15:03;;;;;;;;;;;18.30;50.10;;;;;;5003374;28;19917;-52
2023/01/09 04:17:28;;;;;;;;;;;18.10;50.30;;;;;;4999981;28;19917;-52
2023/01/09 04:19:53;;;;;;;;;;;18.00;50.50;;;;;;5004014;28;19921;-52
2023/01/09 04:22:19;;;;;;;;;;;18.00;50.70;;;;;;4999347;28;20262;-52
2023/01/09 04:24:44;;;;;;;;;;;17.90;50.80;;;;;;5003480;28;20293;-52
2023/01/09 04:27:11;;;;;;;;;;;17.80;51.10;;;;;;4998468;28;19921;-52
2023/01/09 04:29:36;;;;;;;;;;;17.70;51.30;;;;;;4999541;28;19921;-52
2023/01/09 04:32:02;;;;;;;;;;;17.60;51.50;;;;;;5001495;28;20381;-51
2023/01/09 04:34:27;;;;;;;;;;;17.50;51.60;;;;;;4993654;28;19918;-51
2023/01/09 04:36:53;;;;;;;;;;;17.50;51.80;;;;;;4992959;28;20049;-51
2023/01/09 04:39:19;;;;;;;;;;;17.40;52.50;;;;;;4997236;28;19925;-54
2023/01/09 04:41:50;;;;;;;;;;;17.30;52.70;;;;;;4994756;28;19914;-52
2023/01/09 04:44:16;;;;;;;;;;;17.30;52.10;;;;;;4998931;28;19922;-52
2023/01/09 04:46:41;;;;;;;;;;;17.30;52.20;;;;;;5003742;28;20408;-51
2023/01/09 04:49:07;;;;;;;;;;;17.30;52.20;;;;;;4998307;28;19963;-52
2023/01/09 04:51:32;;;;;;;;;;;17.40;52.20;;;;;;5008512;28;19913;-52
2023/01/09 04:53:58;;;;;;;;;;;17.40;52.00;;;;;;5017975;28;19990;-51
2023/01/09 04:56:23;;;;;;;;;;;17.50;51.90;;;;;;5019493;28;19921;-53
2023/01/09 04:58:49;;;;;;;;;;;17.60;51.60;;;;;;5002399;28;19913;-52
2023/01/09 05:01:14;;;;;;;;;;;17.70;51.40;;;;;;5006252;28;19921;-52
2023/01/09 05:03:39;;;;;;;;;;;17.90;51.10;;;;;;4998044;28;19914;-52
2023/01/09 05:06:05;;;;;;;;;;;18.00;50.80;;;;;;5010429;28;19994;-52
2023/01/09 05:08:30;;;;;;;;;;;18.10;50.60;;;;;;4999678;28;20000;-52
2023/01/09 05:10:56;;;;;;;;;;;18.10;50.40;;;;;;5003763;28;19914;-52
2023/01/09 05:13:21;;;;;;;;;;;18.10;50.40;;;;;;5002856;28;20449;-52
2023/01/09 05:15:47;;;;;;;;;;;18.10;50.30;;;;;;5005173;28;20366;-52
2023/01/09 05:18:12;;;;;;;;;;;18.10;50.50;;;;;;5017147;28;20373;-52
2023/01/09 05:20:37;;;;;;;;;;;18.00;50.60;;;;;;5005378;28;19929;-52
2023/01/09 05:23:03;;;;;;;;;;;17.90;50.80;;;;;;4997729;28;20381;-52
2023/01/09 05:25:28;;;;;;;;;;;17.90;51.00;;;;;;4997186;28;20263;-52
2023/01/09 05:27:54;;;;;;;;;;;17.80;51.10;;;;;;5005107;28;20290;-52
2023/01/09 05:30:19;;;;;;;;;;;17.70;51.20;;;;;;5019121;28;20285;-52
2023/01/09 05:32:45;;;;;;;;;;;17.60;52.00;;;;;;5009915;28;20409;-52
2023/01/09 05:35:10;;;;;;;;;;;17.60;51.40;;;;;;5031859;28;19943;-52
2023/01/09 05:37:35;;;;;;;;;;;17.60;51.60;;;;;;5015875;28;20008;-53
2023/01/09 05:40:01;;;;;;;;;;;17.50;51.70;;;;;;5005566;28;19957;-52
2023/01/09 05:42:26;;;;;;;;;;;17.50;52.00;;;;;;5001087;28;19920;-52
2023/01/09 05:44:52;;;;;;;;;;;17.50;51.80;;;;;;4998867;28;19914;-52
2023/01/09 05:47:17;;;;;;;;;;;17.50;51.80;;;;;;5014013;28;20503;-52
2023/01/09 05:49:43;;;;;;;;;;;17.50;51.80;;;;;;4997631;28;20396;-52
2023/01/09 05:52:08;;;;;;;;;;;17.50;51.70;;;;;;5008639;28;19924;-53
2023/01/09 05:54:34;;;;;;;;;;;17.60;51.70;;;;;;4997993;28;19969;-52
2023/01/09 05:56:59;;;;;;;;;;;17.50;52.10;;;;;;5010684;28;19913;-53
2023/01/09 05:59:24;;;;;;;;;;;17.60;51.60;;;;;;5005094;28;19928;-53
2023/01/09 06:01:50;;;;;;;;;;;17.60;51.50;;;;;;4997607;28;19920;-52
2023/01/09 06:04:15;;;;;;;;;;;17.70;51.20;;;;;;4996840;28;19928;-53
2023/01/09 06:06:41;;;;;;;;;;;17.80;51.00;;;;;;4996697;28;20004;-52
2023/01/09 06:09:06;;;;;;;;;;;17.90;50.90;;;;;;4996914;28;19937;-53
2023/01/09 06:11:34;;;;;;;;;;;17.90;50.90;;;;;;5012386;28;19914;-52
2023/01/09 06:14:00;;;;;;;;;;;17.90;50.80;;;;;;4999793;28;19917;-52
2023/01/09 06:16:25;;;;;;;;;;;17.90;50.80;;;;;;4997093;28;20370;-53
2023/01/09 06:18:51;;;;;;;;;;;17.90;50.90;;;;;;5007990;28;20439;-53
2023/01/09 06:21:16;;;;;;;;;;;17.80;50.80;;;;;;5005091;28;19913;-53
2023/01/09 06:23:42;;;;;;;;;;;17.80;50.90;;;;;;5007519;28;20374;-53
2023/01/09 06:26:07;;;;;;;;;;;17.80;51.00;;;;;;5014525;28;20667;-53
2023/01/09 06:28:33;;;;;;;;;;;17.80;51.00;;;;;;5000847;28;20274;-53
2023/01/09 06:30:58;;;;;;;;;;;17.70;51.10;;;;;;4997357;28;20330;-52
2023/01/09 06:33:23;;;;;;;;;;;17.70;51.30;;;;;;5000363;28;20328;-53
2023/01/09 06:35:49;;;;;;;;;;;17.60;51.40;;;;;;5002918;28;19933;-52
2023/01/09 06:38:14;;;;;;;;;;;17.60;51.50;;;;;;5026675;28;19935;-53
2023/01/09 06:40:40;;;;;;;;;;;17.50;51.60;;;;;;5001509;28;19957;-53
2023/01/09 06:43:05;;;;;;;;;;;17.50;51.70;;;;;;5005337;28;19913;-52
2023/01/09 06:45:31;;;;;;;;;;;17.40;51.70;;;;;;5007697;28;19916;-52
2023/01/09 06:47:56;;;;;;;;;;;17.40;51.80;;;;;;5018384;28;19928;-52
2023/01/09 06:50:21;;;;;;;;;;;17.40;51.80;;;;;;5017038;28;19917;-53
2023/01/09 06:52:47;;;;;;;;;;;17.40;51.90;;;;;;5026630;28;20284;-51
2023/01/09 06:55:12;;;;;;;;;;;17.40;51.90;;;;;;4998195;28;20524;-52
2023/01/09 06:57:38;;;;;;;;;;;17.50;51.90;;;;;;5004542;28;19968;-52
2023/01/09 07:00:03;;;;;;;;;;;17.50;51.70;;;;;;5010889;28;19928;-52
2023/01/09 07:02:29;;;;;;;;;;;17.70;51.50;;;;;;5008454;28;19996;-51
2023/01/09 07:04:54;;;;;;;;;;;17.80;51.10;;;;;;5011604;28;19957;-52
2023/01/09 07:07:21;;;;;;;;;;;17.90;51.90;;;;;;5005162;28;19914;-53
2023/01/09 07:09:46;;;;;;;;;;;18.30;50.60;;;;;;5030568;28;20004;-53
2023/01/09 07:12:13;;;;;;;;;;;18.80;49.40;;;;;;4995909;28;20009;-52
2023/01/09 07:14:39;;;;;;;;;;;19.20;48.70;;;;;;5005954;28;19964;-52
2023/01/09 07:17:04;;;;;;;;;;;19.60;47.80;;;;;;5008884;28;19917;-52
2023/01/09 07:19:30;;;;;;;;;;;19.90;47.10;;;;;;4995319;28;19917;-52
2023/01/09 07:21:55;;;;;;;;;;;20.00;46.90;;;;;;5000879;28;19937;-52
2023/01/09 07:24:20;;;;;;;;;;;20.10;46.60;;;;;;5007415;28;19921;-52
2023/01/09 07:26:46;;;;;;;;;;;20.10;46.60;;;;;;5001368;28;19920;-52
2023/01/09 07:29:12;;;;;;;;;;;20.10;46.60;;;;;;4997452;28;19953;-53
2023/01/09 07:31:37;;;;;;;;;;;20.10;46.70;;;;;;5000526;28;19913;-52
2023/01/09 07:34:02;;;;;;;;;;;20.10;46.60;;;;;;5005808;28;19917;-52
2023/01/09 07:36:28;;;;;;;;;;;20.30;46.40;;;;;;5005155;28;19968;-53
2023/01/09 07:38:53;;;;;;;;;;;20.40;46.10;;;;;;5010260;28;19932;-53
2023/01/09 07:41:19;;;;;;;;;;;20.50;45.90;;;;;;5005365;28;20416;-52
2023/01/09 07:43:44;;;;;;;;;;;20.60;45.80;;;;;;5006666;28;20412;-53
2023/01/09 07:46:10;;;;;;;;;;;20.70;45.60;;;;;;5002283;28;20341;-53
2023/01/09 07:48:35;;;;;;;;;;;20.70;45.60;;;;;;5023740;28;20408;-52
2023/01/09 07:51:01;;;;;;;;;;;20.90;45.20;;;;;;5001745;28;19913;-53
2023/01/09 07:53:26;;;;;;;;;;;20.90;45.10;;;;;;5007438;28;19922;-53
2023/01/09 07:55:51;;;;;;;;;;;21.00;45.20;;;;;;4998808;28;19921;-54
2023/01/09 07:58:17;;;;;;;;;;;21.30;45.00;;;;;;5004849;28;20021;-54
2023/01/09 08:00:42;;;;;;;;;;;21.50;44.60;;;;;;4997804;28;19914;-53
2023/01/09 08:03:08;;;;;;;;;;;21.70;44.10;;;;;;5001596;28;19943;-54
2023/01/09 08:05:33;;;;;;;;;;;22.00;43.60;;;;;;4993501;28;20378;-53
2023/01/09 08:07:59;;;;;;;;;;;22.20;43.40;;;;;;4993573;28;20346;-54
2023/01/09 08:10:24;;;;;;;;;;;22.30;43.20;;;;;;5002991;28;20400;-53
2023/01/09 08:12:49;;;;;;;;;;;22.40;43.10;;;;;;5002893;28;20028;-54
2023/01/09 08:15:15;;;;;;;;;;;22.50;42.80;;;;;;4993903;28;19914;-55
2023/01/09 08:17:41;;;;;;;;;;;22.60;42.80;;;;;;4995074;28;19980;-53
2023/01/09 08:20:07;;;;;;;;;;;22.70;42.80;;;;;;4995666;28;19921;-54
2023/01/09 08:22:32;;;;;;;;;;;22.70;42.70;;;;;;5007045;28;19934;-54
2023/01/09 08:24:58;;;;;;;;;;;22.80;42.70;;;;;;5004635;28;20432;-53
2023/01/09 08:27:23;;;;;;;;;;;22.80;42.70;;;;;;5012017;28;20309;-53
2023/01/09 08:29:48;;;;;;;;;;;22.80;42.70;;;;;;5000450;28;20390;-54
2023/01/09 08:32:14;;;;;;;;;;;22.90;42.80;;;;;;4991682;28;19929;-54
2023/01/09 08:34:39;;;;;;;;;;;23.00;42.60;;;;;;5005718;28;19917;-53
2023/01/09 08:37:05;;;;;;;;;;;23.00;42.60;;;;;;5005350;28;19940;-54
2023/01/09 08:39:31;;;;;;;;;;;23.00;42.50;;;;;;4996304;28;19918;-54
2023/01/09 08:47:26;;;;;;;;;;;23.10;42.70;;;;;;5020570;28;20297;-53
2023/01/09 08:49:51;;;;;;;;;;;23.10;42.70;;;;;;5028139;28;19968;-54
2023/01/09 08:52:17;;;;;;;;;;;23.10;42.70;;;;;;5009839;28;19948;-54
2023/01/09 08:54:42;;;;;;;;;;;23.10;42.70;;;;;;5007036;28;19917;-54
2023/01/09 08:57:08;;;;;;;;;;;23.10;42.90;;;;;;5033377;28;20005;-54
2023/01/09 08:59:33;;;;;;;;;;;23.10;42.90;;;;;;4995826;28;19925;-54
2023/01/09 09:01:59;;;;;;;;;;;23.10;42.90;;;;;;5002189;28;19921;-54
2023/01/09 09:04:24;;;;;;;;;;;23.20;42.90;;;;;;4997174;28;19922;-53
2023/01/09 09:06:50;;;;;;;;;;;23.20;42.90;;;;;;4996214;28;19920;-54
2023/01/09 09:09:15;;;;;;;;;;;23.20;42.90;;;;;;5007570;28;19919;-54
2023/01/09 09:11:41;;;;;;;;;;;23.20;43.00;;;;;;5006060;28;20001;-53
2023/01/09 09:16:50;;;;;;;;;;;23.20;43.00;;;;;;4996225;28;20393;-54
2023/01/09 09:19:16;;;;;;;;;;;23.20;43.20;;;;;;5002763;28;19914;-54
2023/01/09 09:21:41;;;;;;;;;;;23.30;43.30;;;;;;4999391;28;20382;-54
2023/01/09 09:24:06;;;;;;;;;;;23.40;43.20;;;;;;5000554;28;20312;-54
2023/01/09 09:26:32;;;;;;;;;;;23.40;43.00;;;;;;4998870;28;20523;-53
2023/01/09 09:28:57;;;;;;;;;;;23.40;43.00;;;;;;4999595;28;20458;-54
2023/01/09 09:31:23;;;;;;;;;;;23.50;43.10;;;;;;5005707;28;19961;-54
2023/01/09 09:33:48;;;;;;;;;;;23.50;43.00;;;;;;5009376;28;19937;-54
2023/01/09 09:36:14;;;;;;;;;;;23.50;42.90;;;;;;5004303;28;19924;-54
2023/01/09 09:38:39;;;;;;;;;;;23.50;43.10;;;;;;4995613;28;19913;-53
2023/01/09 09:44:41;;;;;;;;;;;23.40;43.30;;;;;;4997322;28;20416;-54
2023/01/09 09:47:09;;;;;;;;;;;23.40;43.40;;;;;;5018406;28;19924;-53
2023/01/09 09:49:54;;;;;;;;;;;23.30;43.40;;;;;;5010537;28;19939;-54
2023/01/09 09:52:34;;;;;;;;;;;23.30;43.50;;;;;;5006936;28;19920;-53
2023/01/09 09:55:00;;;;;;;;;;;23.30;43.50;;;;;;5003350;28;19918;-54
2023/01/09 09:57:28;;;;;;;;;;;23.20;43.50;;;;;;5046211;28;19914;-53
2023/01/09 09:59:53;;;;;;;;;;;23.20;43.50;;;;;;5009849;28;19918;-54
2023/01/09 10:02:19;;;;;;;;;;;23.30;43.30;;;;;;4996765;28;20294;-54
2023/01/09 10:04:45;;;;;;;;;;;23.40;43.10;;;;;;5008168;28;20278;-53
2023/01/09 10:07:20;;;;;;;;;;;23.50;42.90;;;;;;5031634;28;19957;-54
2023/01/09 10:09:53;;;;;;;;;;;23.50;42.90;;;;;;4998955;28;19914;-54
2023/01/09 10:12:24;;;;;;;;;;;23.50;42.90;;;;;;5003474;28;19925;-54
2023/01/09 10:14:50;;;;;;;;;;;23.60;42.90;;;;;;5033163;28;20018;-54
2023/01/09 10:17:24;;;;;;;;;;;23.60;42.90;;;;;;5015133;28;19913;-53
2023/01/09 10:19:54;;;;;;;;;;;23.60;42.90;;;;;;5004629;28;19922;-54
2023/01/09 10:22:30;;;;;;;;;;;23.70;42.90;;;;;;5040178;28;20095;-54
2023/01/09 10:24:59;;;;;;;;;;;23.70;42.70;;;;;;5010860;28;20460;-53
2023/01/09 10:27:27;;;;;;;;;;;23.70;42.80;;;;;;5014226;28;20102;-53
2023/01/09 10:30:15;;;;;;;;;;;23.60;42.90;;;;;;5014504;28;19961;-55
2023/01/09 10:32:56;;;;;;;;;;;23.60;42.90;;;;;;5011818;28;19984;-54
2023/01/09 10:35:40;;;;;;;;;;;23.60;42.90;;;;;;4997377;28;19914;-53
2023/01/09 10:38:07;;;;;;;;;;;23.50;43.10;;;;;;5002571;28;19917;-53
2023/01/09 10:40:41;;;;;;;;;;;23.50;43.20;;;;;;5009244;28;19936;-54
2023/01/09 10:43:39;;;;;;;;;;;23.50;43.20;;;;;;5015924;28;20012;-53
2023/01/09 10:46:08;;;;;;;;;;;23.40;43.30;;;;;;5021844;28;19952;-54
2023/01/09 10:48:35;;;;;;;;;;;23.40;43.40;;;;;;5041635;28;19992;-53
2023/01/09 10:51:01;;;;;;;;;;;23.40;43.30;;;;;;5003434;28;19992;-54
2023/01/09 10:53:27;;;;;;;;;;;23.40;43.20;;;;;;5035480;28;20017;-53
2023/01/09 10:55:54;;;;;;;;;;;23.40;43.20;;;;;;5044602;28;19920;-53
2023/01/09 10:58:19;;;;;;;;;;;23.40;43.10;;;;;;4997294;28;19933;-54
2023/01/09 11:00:45;;;;;;;;;;;23.50;43.20;;;;;;4994083;28;20341;-53
2023/01/09 11:03:17;;;;;;;;;;;23.60;43.00;;;;;;5007034;28;20008;-53
2023/01/09 11:05:43;;;;;;;;;;;23.70;42.90;;;;;;5012322;28;19976;-53
2023/01/09 11:08:10;;;;;;;;;;;23.70;42.80;;;;;;5005788;28;19917;-54
2023/01/09 11:10:46;;;;;;;;;;;23.80;42.70;;;;;;4993454;28;19921;-53
2023/01/09 11:13:19;;;;;;;;;;;23.80;42.50;;;;;;5006131;28;20350;-53
2023/01/09 11:15:45;;;;;;;;;;;23.80;42.40;;;;;;4998729;28;19917;-53
2023/01/09 11:18:18;;;;;;;;;;;23.80;42.50;;;;;;5011887;28;19919;-53
2023/01/09 11:20:43;;;;;;;;;;;23.90;42.40;;;;;;5006643;28;19914;-54
2023/01/09 11:23:21;;;;;;;;;;;24.00;42.30;;;;;;5011115;28;19981;-53
2023/01/09 11:25:50;;;;;;;;;;;24.00;42.30;;;;;;5012011;28;19910;-53
2023/01/09 11:28:16;;;;;;;;;;;23.90;42.30;;;;;;5002402;28;19949;-54
2023/01/09 11:30:51;;;;;;;;;;;23.90;42.30;;;;;;5003227;28;19918;-53
2023/01/09 11:33:23;;;;;;;;;;;23.90;42.40;;;;;;5045031;28;20012;-53
2023/01/09 11:36:09;;;;;;;;;;;24.00;42.30;;;;;;5008666;28;19918;-54
2023/01/09 11:38:46;;;;;;;;;;;23.90;42.30;;;;;;4994005;28;20004;-54
2023/01/09 11:41:14;;;;;;;;;;;23.90;42.50;;;;;;5042340;28;19913;-53
2023/01/09 11:43:40;;;;;;;;;;;23.80;42.50;;;;;;5044079;28;20012;-53
2023/01/09 11:46:06;;;;;;;;;;;23.80;42.70;;;;;;5027424;28;19953;-53
2023/01/09 11:48:35;;;;;;;;;;;23.70;42.90;;;;;;5036906;28;20282;-54
2023/01/09 11:51:01;;;;;;;;;;;23.70;43.60;;;;;;5002656;28;19913;-53
2023/01/09 11:53:27;;;;;;;;;;;23.70;43.00;;;;;;5002257;28;20016;-53
2023/01/09 11:55:55;;;;;;;;;;;23.70;43.20;;;;;;5002353;28;20033;-54
2023/01/09 11:58:20;;;;;;;;;;;23.70;43.50;;;;;;5033834;28;20321;-54
2023/01/09 12:00:57;;;;;;;;;;;23.70;43.50;;;;;;4996332;28;19914;-52
2023/01/09 12:03:42;;;;;;;;;;;23.80;43.30;;;;;;5033609;28;19914;-53
2023/01/09 12:06:14;;;;;;;;;;;23.80;43.40;;;;;;5004852;28;19984;-53
2023/01/09 12:08:42;;;;;;;;;;;23.80;43.30;;;;;;5005853;28;19931;-54
2023/01/09 12:11:20;;;;;;;;;;;23.80;43.40;;;;;;5011743;28;19916;-53
2023/01/09 12:13:58;;;;;;;;;;;23.80;43.30;;;;;;5010333;28;19932;-53
2023/01/09 12:16:26;;;;;;;;;;;23.90;43.30;;;;;;5035432;28;19976;-53
2023/01/09 12:19:00;;;;;;;;;;;23.90;43.30;;;;;;5004560;28;19913;-54
2023/01/09 12:21:32;;;;;;;;;;;23.90;43.50;;;;;;4995296;28;19914;-53
2023/01/09 12:24:04;;;;;;;;;;;23.90;43.20;;;;;;5008234;28;19929;-54
2023/01/09 12:26:30;;;;;;;;;;;23.90;43.40;;;;;;5002672;28;20378;-54
2023/01/09 12:29:05;;;;;;;;;;;23.90;43.50;;;;;;5003540;28;19953;-53
2023/01/09 12:31:49;;;;;;;;;;;24.00;43.40;;;;;;5007789;28;20377;-53
2023/01/09 12:34:14;;;;;;;;;;;24.00;43.20;;;;;;5002439;28;20385;-53
2023/01/09 12:36:45;;;;;;;;;;;24.00;43.20;;;;;;4997976;28;19918;-53
2023/01/09 12:39:23;;;;;;;;;;;24.00;43.10;;;;;;4993900;28;19959;-53
2023/01/09 12:41:49;;;;;;;;;;;24.00;43.30;;;;;;5037250;28;20397;-53
2023/01/09 12:44:18;;;;;;;;;;;24.00;43.20;;;;;;5001525;28;19939;-53
2023/01/09 12:46:47;;;;;;;;;;;24.00;43.30;;;;;;5033193;28;19922;-53
2023/01/09 12:49:12;;;;;;;;;;;23.90;43.50;;;;;;5037944;28;19921;-53
2023/01/09 12:51:46;;;;;;;;;;;23.90;43.40;;;;;;5004285;28;19914;-53
2023/01/09 12:54:15;;;;;;;;;;;24.00;43.40;;;;;;5037085;28;19984;-53
2023/01/09 12:56:51;;;;;;;;;;;24.00;43.20;;;;;;5032346;28;19917;-54
2023/01/09 12:59:29;;;;;;;;;;;24.10;43.30;;;;;;5000148;28;19914;-53
2023/01/09 13:01:59;;;;;;;;;;;24.10;43.10;;;;;;4995403;28;19953;-54
2023/01/09 13:04:26;;;;;;;;;;;24.10;43.00;;;;;;5026282;28;19968;-54
2023/01/09 13:06:54;;;;;;;;;;;24.10;43.20;;;;;;5004234;28;20016;-53
2023/01/09 13:09:22;;;;;;;;;;;24.10;43.20;;;;;;5040816;28;19913;-54
2023/01/09 13:11:56;;;;;;;;;;;24.10;43.30;;;;;;5006420;28;20308;-53
2023/01/09 13:14:40;;;;;;;;;;;24.10;43.20;;;;;;5004955;28;19956;-53
2023/01/09 13:17:06;;;;;;;;;;;24.20;43.20;;;;;;5009700;28;19914;-54
2023/01/09 13:19:36;;;;;;;;;;;24.20;43.10;;;;;;5033891;28;19964;-53
2023/01/09 13:22:01;;;;;;;;;;;24.10;43.30;;;;;;5002252;28;19957;-53
2023/01/09 13:24:33;;;;;;;;;;;24.20;43.30;;;;;;5013556;28;20396;-53
2023/01/09 13:26:59;;;;;;;;;;;24.10;43.40;;;;;;5003195;28;19925;-54
2023/01/09 13:29:26;;;;;;;;;;;24.10;43.40;;;;;;5011641;28;19960;-54
2023/01/09 13:31:56;;;;;;;;;;;24.20;43.50;;;;;;5004140;28;20365;-53
2023/01/09 13:34:22;;;;;;;;;;;24.20;43.40;;;;;;5045214;28;19932;-54
2023/01/09 13:36:49;;;;;;;;;;;24.20;43.40;;;;;;5015001;28;19910;-53
2023/01/09 13:39:18;;;;;;;;;;;24.20;43.40;;;;;;5014558;28;19914;-53
2023/01/09 13:44:31;;;;;;;;;;;24.20;43.50;;;;;;5029037;28;20012;-54
2023/01/09 13:46:57;;;;;;;;;;;24.10;43.60;;;;;;5000008;28;20000;-53
2023/01/09 13:49:27;;;;;;;;;;;24.10;43.60;;;;;;5046644;28;19948;-53
2023/01/09 13:51:57;;;;;;;;;;;24.10;43.70;;;;;;4998882;28;19910;-53
2023/01/09 13:54:41;;;;;;;;;;;24.20;43.70;;;;;;4995691;28;19934;-55
2023/01/09 13:57:19;;;;;;;;;;;24.10;43.60;;;;;;4996637;28;19960;-54
2023/01/09 13:59:47;;;;;;;;;;;24.20;43.50;;;;;;4996746;28;19972;-54
2023/01/09 14:02:31;;;;;;;;;;;24.20;43.50;;;;;;5002676;28;19961;-54
2023/01/09 14:04:56;;;;;;;;;;;24.20;43.60;;;;;;5001119;28;20012;-54
2023/01/09 14:07:22;;;;;;;;;;;24.20;43.60;;;;;;5005139;28;19960;-54
2023/01/09 14:09:51;;;;;;;;;;;24.30;43.60;;;;;;5036062;28;19918;-54
2023/01/09 14:12:17;;;;;;;;;;;24.30;43.60;;;;;;4998000;28;19924;-54
2023/01/09 14:14:43;;;;;;;;;;;24.30;44.20;;;;;;5009274;28;19918;-55
2023/01/09 14:17:15;;;;;;;;;;;24.30;43.50;;;;;;5014746;28;19956;-54
2023/01/09 14:19:41;;;;;;;;;;;24.30;43.50;;;;;;5016502;28;19917;-54
2023/01/09 14:22:06;;;;;;;;;;;24.30;43.60;;;;;;5014742;28;20392;-53
2023/01/09 14:24:33;;;;;;;;;;;24.30;43.50;;;;;;5009795;28;19914;-53
2023/01/09 14:26:59;;;;;;;;;;;24.30;43.50;;;;;;5010865;28;19917;-53
2023/01/09 14:29:27;;;;;;;;;;;24.30;43.50;;;;;;5021326;28;19914;-54
2023/01/09 14:32:13;;;;;;;;;;;24.20;43.60;;;;;;5000488;28;19917;-53
2023/01/09 14:34:38;;;;;;;;;;;24.20;43.80;;;;;;5003643;28;19921;-54
2023/01/09 14:37:04;;;;;;;;;;;24.00;44.10;;;;;;5003276;28;19913;-54